Time;durP1;ratioP1;P1;durP2;ratioP2;P2;SDS_P1;SDS_P2;PMS_P1;PMS_P2;Temp;Humidity;BMP_temperature;BMP_pressure;BME280_temperature;BME280_humidity;BME280_pressure;Samples;Min_cycle;Max_cycle;Signal;HPM_P1;HPM_P2
2023/05/25 00:01:33;;;;;;;0.45;0.35;;;;;;;-144.54;100.00;64673.41;5107293;28;20044;-53
2023/05/25 00:03:59;;;;;;;;;;;;;;;-144.54;100.00;64673.41;5097857;28;20059;-54
2023/05/25 00:06:26;;;;;;;0.20;0.20;;;;;;;-144.54;100.00;64673.41;5113169;28;19920;-53
2023/05/25 00:08:54;;;;;;;0.20;0.20;;;;;;;-144.54;100.00;64673.41;5113247;28;20047;-50
2023/05/25 00:11:22;;;;;;;0.20;0.20;;;;;;;-144.54;100.00;64673.41;5112403;28;20039;-53
2023/05/25 00:13:48;;;;;;;0.10;0.10;;;;;;;-144.54;100.00;64673.41;5112393;27;20217;-53
2023/05/25 00:16:14;;;;;;;0.20;0.20;;;;;;;-144.54;100.00;64673.41;5097374;28;20141;-53
2023/05/25 00:18:40;;;;;;;0.20;0.20;;;;;;;-144.54;100.00;64673.41;5116953;28;20543;-53
2023/05/25 00:21:06;;;;;;;0.20;0.20;;;;;;;-144.54;100.00;64673.41;5115896;28;20039;-51
2023/05/25 00:23:32;;;;;;;0.20;0.20;;;;;;;-144.54;100.00;64673.41;5097355;28;20111;-53
2023/05/25 00:25:58;;;;;;;0.20;0.20;;;;;;;-144.54;100.00;64673.41;5115678;28;20047;-52
2023/05/25 00:28:24;;;;;;;0.20;0.20;;;;;;;-144.54;100.00;64673.41;5114240;28;20499;-52
2023/05/25 00:30:49;;;;;;;0.20;0.20;;;;;;;-144.54;100.00;64673.41;5102800;28;20055;-54
2023/05/25 00:33:15;;;;;;;0.20;0.20;;;;;;;-144.54;100.00;64673.41;5095353;28;20244;-52
2023/05/25 00:35:42;;;;;;;0.30;0.30;;;;;;;-144.54;100.00;64673.41;5113882;28;20470;-53
2023/05/25 00:38:12;;;;;;;0.30;0.30;;;;;;;-144.54;100.00;64673.41;5115105;28;20407;-54
2023/05/25 00:40:39;;;;;;;0.20;0.20;;;;;;;-144.54;100.00;64673.41;5110252;28;20047;-53
2023/05/25 00:43:07;;;;;;;0.20;0.20;;;;;;;-144.54;100.00;64673.41;5093476;28;20035;-53
2023/05/25 00:45:32;;;;;;;0.20;0.20;;;;;;;-144.54;100.00;64673.41;5095443;28;20047;-53
2023/05/25 00:47:59;;;;;;;0.20;0.20;;;;;;;-144.54;100.00;64673.41;5074939;28;20117;-52
2023/05/25 00:50:36;;;;;;;0.20;0.20;;;;;;;-144.54;100.00;64673.41;5093067;28;20047;-50
2023/05/25 00:53:03;;;;;;;0.20;0.20;;;;;;;-144.54;100.00;64673.41;5097105;28;20039;-52
2023/05/25 00:55:32;;;;;;;0.20;0.20;;;;;;;-144.54;100.00;64673.41;5115298;28;20535;-52
2023/05/25 00:57:59;;;;;;;0.30;0.30;;;;;;;-144.54;100.00;64673.41;5114511;28;20039;-52
2023/05/25 01:00:27;;;;;;;0.33;0.30;;;;;;;-144.54;100.00;64673.41;5105281;28;20449;-51
2023/05/25 01:02:55;;;;;;;0.13;0.13;;;;;;;-144.54;100.00;64673.41;5107481;28;20071;-53
2023/05/25 01:05:24;;;;;;;0.20;0.20;;;;;;;-144.54;100.00;64673.41;5115315;28;20370;-52
2023/05/25 01:07:51;;;;;;;0.30;0.30;;;;;;;-144.54;100.00;64673.41;5115618;28;20051;-53
2023/05/25 01:10:20;;;;;;;0.20;0.20;;;;;;;-144.54;100.00;64673.41;5107111;28;20073;-55
2023/05/25 01:12:49;;;;;;;0.20;0.20;;;;;;;-144.54;100.00;64673.41;5094945;28;20067;-50
2023/05/25 01:15:15;;;;;;;0.32;0.32;;;;;;;-144.54;100.00;64673.41;5090035;28;20132;-54
2023/05/25 01:17:42;;;;;;;0.20;0.20;;;;;;;-144.54;100.00;64673.41;5115620;28;20051;-54
2023/05/25 01:20:08;;;;;;;0.20;0.20;;;;;;;-144.54;100.00;64673.41;5108744;28;20047;-51
2023/05/25 01:22:59;;;;;;;0.20;0.20;;;;;;;-144.54;100.00;64673.41;5077540;28;20058;-51
2023/05/25 01:25:33;;;;;;;0.20;0.20;;;;;;;-144.54;100.00;64673.41;5090868;27;20074;-54
2023/05/25 01:28:06;;;;;;;0.20;0.20;;;;;;;-144.54;100.00;64673.41;5114788;28;20055;-53
2023/05/25 01:30:32;;;;;;;0.20;0.20;;;;;;;-144.54;100.00;64673.41;5113735;28;20050;-52
2023/05/25 01:32:58;;;;;;;0.20;0.20;;;;;;;-144.54;100.00;64673.41;5097192;28;20055;-51
2023/05/25 01:35:24;;;;;;;0.20;0.20;;;;;;;-144.54;100.00;64673.41;5092822;28;20058;-52
2023/05/25 01:37:50;;;;;;;0.20;0.20;;;;;;;-144.54;100.00;64673.41;5092977;28;20040;-52
2023/05/25 01:40:16;;;;;;;0.10;0.10;;;;;;;-144.54;100.00;64673.41;5102598;28;20047;-54
2023/05/25 01:42:42;;;;;;;0.30;0.30;;;;;;;-144.54;100.00;64673.41;5114878;28;20078;-52
2023/05/25 01:45:08;;;;;;;0.20;0.20;;;;;;;-144.54;100.00;64673.41;5114792;28;20059;-53
2023/05/25 01:47:44;;;;;;;0.20;0.20;;;;;;;-144.54;100.00;64673.41;5114113;27;20062;-52
2023/05/25 01:50:23;;;;;;;0.20;0.20;;;;;;;-144.54;100.00;64673.41;5112950;28;20160;-52
2023/05/25 01:53:02;;;;;;;0.10;0.10;;;;;;;-144.54;100.00;64673.41;5114827;28;20100;-53
2023/05/25 01:55:29;;;;;;;0.20;0.20;;;;;;;-144.54;100.00;64673.41;5114254;28;20043;-52
2023/05/25 01:57:56;;;;;;;0.20;0.20;;;;;;;-144.54;100.00;64673.41;5096483;28;20043;-53
2023/05/25 02:00:25;;;;;;;0.10;0.10;;;;;;;-144.54;100.00;64673.41;5114505;28;20054;-54
2023/05/25 02:02:51;;;;;;;0.20;0.20;;;;;;;-144.54;100.00;64673.41;5114779;28;20047;-53
2023/05/25 02:05:19;;;;;;;0.20;0.20;;;;;;;-144.54;100.00;64673.41;5092090;28;20126;-54
2023/05/25 02:07:45;;;;;;;0.20;0.20;;;;;;;-144.54;100.00;64673.41;5092459;28;20356;-53
2023/05/25 02:10:11;;;;;;;0.20;0.20;;;;;;;-144.54;100.00;64673.41;5100934;28;20096;-54
2023/05/25 02:12:36;;;;;;;0.20;0.20;;;;;;;-144.54;100.00;64673.41;5095689;28;20043;-53
2023/05/25 02:15:03;;;;;;;0.20;0.20;;;;;;;-144.54;100.00;64673.41;5114144;28;20046;-52
2023/05/25 02:17:29;;;;;;;0.20;0.20;;;;;;;-144.54;100.00;64673.41;5113941;28;20847;-55
2023/05/25 02:19:55;;;;;;;0.20;0.20;;;;;;;-144.54;100.00;64673.41;5114469;28;20423;-52
2023/05/25 02:22:21;;;;;;;0.20;0.20;;;;;;;-144.54;100.00;64673.41;5114172;28;20202;-54
2023/05/25 02:24:47;;;;;;;0.20;0.20;;;;;;;-144.54;100.00;64673.41;5092087;28;20047;-53
2023/05/25 02:27:13;;;;;;;0.20;0.20;;;;;;;-144.54;100.00;64673.41;5075751;28;20222;-52
2023/05/25 02:29:39;;;;;;;0.20;0.20;;;;;;;-144.54;100.00;64673.41;5096010;28;20051;-53
2023/05/25 02:32:05;;;;;;;0.20;0.20;;;;;;;-144.54;100.00;64673.41;5114425;28;20054;-54
2023/05/25 02:34:31;;;;;;;0.20;0.20;;;;;;;-144.54;100.00;64673.41;5111661;28;20070;-53
2023/05/25 02:36:57;;;;;;;0.20;0.20;;;;;;;-144.54;100.00;64673.41;5114344;28;20422;-52
2023/05/25 02:39:25;;;;;;;0.55;0.47;;;;;;;-144.54;100.00;64673.41;5094668;28;20521;-51
2023/05/25 02:41:50;;;;;;;0.20;0.20;;;;;;;-144.54;100.00;64673.41;5113762;28;20051;-51
2023/05/25 02:44:16;;;;;;;0.20;0.20;;;;;;;-144.54;100.00;64673.41;5113608;28;20058;-54
2023/05/25 02:46:42;;;;;;;0.47;0.47;;;;;;;-144.54;100.00;64673.41;5106197;27;20104;-48
2023/05/25 02:49:07;;;;;;;0.20;0.20;;;;;;;-144.54;100.00;64673.41;5112154;28;20057;-47
2023/05/25 02:51:33;;;;;;;0.43;0.30;;;;;;;-144.54;100.00;64673.41;5111509;28;20089;-49
2023/05/25 02:53:59;;;;;;;0.20;0.20;;;;;;;-144.54;100.00;64673.41;5113547;28;20054;-47
2023/05/25 02:56:26;;;;;;;0.20;0.20;;;;;;;-144.54;100.00;64673.41;5113901;28;20066;-47
2023/05/25 02:58:51;;;;;;;0.20;0.20;;;;;;;-144.54;100.00;64673.41;5113876;28;20050;-48
2023/05/25 03:01:17;;;;;;;0.20;0.20;;;;;;;-144.54;100.00;64673.41;5112929;28;20043;-47
2023/05/25 03:03:45;;;;;;;0.20;0.20;;;;;;;-144.54;100.00;64673.41;5095558;28;20494;-47
2023/05/25 03:06:12;;;;;;;;;;;;;;;-144.54;100.00;64673.41;5091796;28;20126;-49
2023/05/25 03:08:39;;;;;;;0.20;0.20;;;;;;;-144.54;100.00;64673.41;5093255;28;20204;-48
2023/05/25 03:11:05;;;;;;;0.10;0.10;;;;;;;-144.54;100.00;64673.41;5090909;28;20048;-47
2023/05/25 03:13:30;;;;;;;0.38;0.38;;;;;;;-144.54;100.00;64673.41;5091286;28;20046;-48
2023/05/25 03:15:56;;;;;;;0.20;0.20;;;;;;;-144.54;100.00;64673.41;5107889;28;20047;-48
2023/05/25 03:18:21;;;;;;;0.20;0.20;;;;;;;-144.54;100.00;64673.41;5113259;28;20493;-48
2023/05/25 03:20:47;;;;;;;0.30;0.30;;;;;;;-144.54;100.00;64673.41;5112603;28;20043;-47
2023/05/25 03:23:13;;;;;;;0.20;0.20;;;;;;;-144.54;100.00;64673.41;5112993;28;20478;-48
2023/05/25 03:25:38;;;;;;;0.20;0.20;;;;;;;-144.54;100.00;64673.41;5112486;28;20046;-47
2023/05/25 03:28:04;;;;;;;0.10;0.10;;;;;;;-144.54;100.00;64673.41;5113098;28;20454;-48
2023/05/25 03:30:30;;;;;;;0.20;0.20;;;;;;;-144.54;100.00;64673.41;5112704;28;20051;-48
2023/05/25 03:32:56;;;;;;;0.30;0.30;;;;;;;-144.54;100.00;64673.41;5112471;28;20039;-48
2023/05/25 03:35:22;;;;;;;0.20;0.20;;;;;;;-144.54;100.00;64673.41;5113100;28;20043;-47
2023/05/25 03:37:47;;;;;;;0.20;0.20;;;;;;;-144.54;100.00;64673.41;5094388;28;20043;-48
2023/05/25 03:40:13;;;;;;;0.45;0.22;;;;;;;-144.54;100.00;64673.41;5112704;28;20108;-47
2023/05/25 03:42:39;;;;;;;0.20;0.20;;;;;;;-144.54;100.00;64673.41;5112752;28;20047;-48
2023/05/25 03:45:07;;;;;;;0.20;0.20;;;;;;;-144.54;100.00;64673.41;5093053;28;20056;-50
2023/05/25 03:47:34;;;;;;;0.10;0.10;;;;;;;-144.54;100.00;64673.41;5102550;27;20125;-48
2023/05/25 03:50:01;;;;;;;0.20;0.20;;;;;;;-144.54;100.00;64673.41;5114072;27;20046;-48
2023/05/25 03:52:27;;;;;;;0.20;0.20;;;;;;;-144.54;100.00;64673.41;5116043;28;20043;-47
2023/05/25 03:54:53;;;;;;;0.20;0.20;;;;;;;-144.54;100.00;64673.41;5116472;28;20171;-49
2023/05/25 03:57:18;;;;;;;0.20;0.20;;;;;;;-144.54;100.00;64673.41;5116872;28;20050;-48
2023/05/25 03:59:44;;;;;;;0.20;0.20;;;;;;;-144.54;100.00;64673.41;5116173;28;20043;-47
2023/05/25 04:02:10;;;;;;;0.60;0.35;;;;;;;-144.54;100.00;64673.41;5116512;28;20082;-47
2023/05/25 04:04:40;;;;;;;0.32;0.32;;;;;;;-144.54;100.00;64673.41;5116788;28;20095;-48
2023/05/25 04:07:07;;;;;;;0.20;0.20;;;;;;;-144.54;100.00;64673.41;5116298;28;20550;-47
2023/05/25 04:09:32;;;;;;;0.20;0.20;;;;;;;-144.54;100.00;64673.41;5114799;28;20055;-48
2023/05/25 04:11:58;;;;;;;0.20;0.20;;;;;;;-144.54;100.00;64673.41;5095702;28;20097;-48
2023/05/25 04:14:24;;;;;;;0.20;0.20;;;;;;;-144.54;100.00;64673.41;5096133;28;20108;-48
2023/05/25 04:16:50;;;;;;;0.20;0.20;;;;;;;-144.54;100.00;64673.41;5116691;28;20502;-47
2023/05/25 04:19:16;;;;;;;0.20;0.20;;;;;;;-144.54;100.00;64673.41;5116329;28;20050;-47
2023/05/25 04:21:42;;;;;;;0.30;0.30;;;;;;;-144.54;100.00;64673.41;5095405;28;20040;-47
2023/05/25 04:24:07;;;;;;;0.20;0.20;;;;;;;-144.54;100.00;64673.41;5095646;28;20447;-48
2023/05/25 04:26:33;;;;;;;0.20;0.20;;;;;;;-144.54;100.00;64673.41;5113965;28;20039;-48
2023/05/25 04:29:00;;;;;;;0.20;0.20;;;;;;;-144.54;100.00;64673.41;5116187;28;20047;-47
2023/05/25 04:31:26;;;;;;;0.20;0.20;;;;;;;-144.54;100.00;64673.41;5115750;28;20654;-48
2023/05/25 04:33:54;;;;;;;0.20;0.20;;;;;;;-144.54;100.00;64673.41;5115578;28;20055;-47
2023/05/25 04:36:21;;;;;;;0.20;0.20;;;;;;;-144.54;100.00;64673.41;5116254;27;20040;-47
2023/05/25 04:38:47;;;;;;;0.17;0.17;;;;;;;-144.54;100.00;64673.41;5098096;28;20074;-47
2023/05/25 04:41:13;;;;;;;0.20;0.20;;;;;;;-144.54;100.00;64673.41;5093384;28;20648;-47
2023/05/25 04:43:39;;;;;;;0.20;0.20;;;;;;;-144.54;100.00;64673.41;5097880;28;20044;-47
2023/05/25 04:46:22;;;;;;;0.20;0.20;;;;;;;-144.54;100.00;64673.41;5104352;27;20043;-47
2023/05/25 04:48:49;;;;;;;0.20;0.20;;;;;;;-144.54;100.00;64673.41;5112123;27;20431;-48
2023/05/25 04:51:15;;;;;;;0.20;0.20;;;;;;;-144.54;100.00;64673.41;5096533;28;20104;-48
2023/05/25 04:53:40;;;;;;;0.10;0.10;;;;;;;-144.54;100.00;64673.41;5106420;28;20472;-47
2023/05/25 04:56:06;;;;;;;0.20;0.20;;;;;;;-144.54;100.00;64673.41;5109588;28;20195;-49
2023/05/25 04:58:32;;;;;;;0.13;0.13;;;;;;;-144.54;100.00;64673.41;5103998;28;20483;-46
2023/05/25 05:00:58;;;;;;;0.20;0.20;;;;;;;-144.54;100.00;64673.41;5103537;28;20031;-47
2023/05/25 05:03:23;;;;;;;0.20;0.20;;;;;;;-144.54;100.00;64673.41;5096080;28;20082;-47
2023/05/25 05:05:49;;;;;;;0.20;0.20;;;;;;;-144.54;100.00;64673.41;5097464;28;20415;-47
2023/05/25 05:08:15;;;;;;;0.20;0.20;;;;;;;-144.54;100.00;64673.41;5095974;28;20047;-47
2023/05/25 05:10:41;;;;;;;0.20;0.20;;;;;;;-144.54;100.00;64673.41;5104120;28;20406;-47
2023/05/25 05:13:07;;;;;;;0.15;0.15;;;;;;;-144.54;100.00;64673.41;5095018;28;20044;-47
2023/05/25 05:15:33;;;;;;;0.20;0.20;;;;;;;-144.54;100.00;64673.41;5096398;28;20046;-49
2023/05/25 05:17:58;;;;;;;0.20;0.20;;;;;;;-144.54;100.00;64673.41;5105242;28;20498;-47
2023/05/25 05:20:24;;;;;;;0.60;0.35;;;;;;;-144.54;100.00;64673.41;5102123;28;20069;-48
2023/05/25 05:22:52;;;;;;;0.20;0.20;;;;;;;-144.54;100.00;64673.41;5104098;28;20092;-47
2023/05/25 05:25:17;;;;;;;0.10;0.10;;;;;;;-144.54;100.00;64673.41;5102390;28;20487;-48
2023/05/25 05:27:43;;;;;;;0.20;0.20;;;;;;;-144.54;100.00;64673.41;5103335;28;20070;-51
2023/05/25 05:30:09;;;;;;;0.20;0.20;;;;;;;-144.54;100.00;64673.41;5095689;28;20073;-48
2023/05/25 05:32:35;;;;;;;0.20;0.20;;;;;;;-144.54;100.00;64673.41;5098022;28;20043;-47
2023/05/25 05:35:00;;;;;;;0.20;0.20;;;;;;;-144.54;100.00;64673.41;5090822;28;20876;-48
2023/05/25 05:37:26;;;;;;;0.20;0.20;;;;;;;-144.54;100.00;64673.41;5073099;28;20384;-50
2023/05/25 05:39:52;;;;;;;0.20;0.20;;;;;;;-144.54;100.00;64673.41;5097236;28;20095;-50
2023/05/25 05:42:17;;;;;;;0.20;0.20;;;;;;;-144.54;100.00;64673.41;5092495;28;20363;-49
2023/05/25 05:44:43;;;;;;;0.20;0.20;;;;;;;-144.54;100.00;64673.41;5092620;28;20175;-48
2023/05/25 05:47:09;;;;;;;0.20;0.20;;;;;;;-144.54;100.00;64673.41;5064755;27;20044;-48
2023/05/25 05:49:37;;;;;;;0.20;0.20;;;;;;;-144.54;100.00;64673.41;5095313;28;20107;-47
2023/05/25 05:52:02;;;;;;;0.10;0.10;;;;;;;-144.54;100.00;64673.41;5095312;27;20046;-49
2023/05/25 05:54:28;;;;;;;0.20;0.20;;;;;;;-144.54;100.00;64673.41;5095346;28;20043;-47
2023/05/25 05:56:54;;;;;;;0.20;0.20;;;;;;;-144.54;100.00;64673.41;5096589;28;20650;-47
2023/05/25 05:59:20;;;;;;;0.20;0.20;;;;;;;-144.54;100.00;64673.41;5093852;28;20227;-48
2023/05/25 06:01:46;;;;;;;0.20;0.20;;;;;;;-144.54;100.00;64673.41;5093797;28;20382;-47
2023/05/25 06:04:12;;;;;;;0.20;0.20;;;;;;;-144.54;100.00;64673.41;5098242;28;20266;-47
2023/05/25 06:06:39;;;;;;;0.20;0.20;;;;;;;-144.54;100.00;64673.41;5103888;28;20058;-48
2023/05/25 06:09:05;;;;;;;0.20;0.20;;;;;;;-144.54;100.00;64673.41;5097074;28;20450;-49
2023/05/25 06:11:34;;;;;;;0.20;0.20;;;;;;;-144.54;100.00;64673.41;5083405;28;20437;-48
2023/05/25 06:14:00;;;;;;;0.20;0.20;;;;;;;-144.54;100.00;64673.41;5078507;28;20127;-49
2023/05/25 06:16:26;;;;;;;0.20;0.20;;;;;;;-144.54;100.00;64673.41;5090350;27;20121;-47
2023/05/25 06:18:51;;;;;;;0.20;0.20;;;;;;;-144.54;100.00;64673.41;5095060;27;20050;-47
2023/05/25 06:21:17;;;;;;;0.20;0.20;;;;;;;-144.54;100.00;64673.41;5095899;27;20048;-48
2023/05/25 06:23:43;;;;;;;0.20;0.20;;;;;;;-144.54;100.00;64673.41;5085813;28;20066;-47
2023/05/25 06:26:08;;;;;;;0.20;0.20;;;;;;;-144.54;100.00;64673.41;5099177;28;20483;-48
2023/05/25 06:28:34;;;;;;;0.20;0.20;;;;;;;-144.54;100.00;64673.41;5095954;28;20047;-50
2023/05/25 06:31:00;;;;;;;0.20;0.20;;;;;;;-144.54;100.00;64673.41;5094248;27;20096;-48
2023/05/25 06:33:25;;;;;;;0.20;0.20;;;;;;;-144.54;100.00;64673.41;5095543;28;20043;-48
2023/05/25 06:35:55;;;;;;;0.25;0.25;;;;;;;-144.54;100.00;64673.41;5093073;28;20532;-47
2023/05/25 06:38:22;;;;;;;0.30;0.30;;;;;;;-144.54;100.00;64673.41;5096159;28;20047;-47
2023/05/25 06:40:48;;;;;;;0.13;0.13;;;;;;;-144.54;100.00;64673.41;5091026;28;20074;-47
2023/05/25 06:43:14;;;;;;;0.20;0.20;;;;;;;-144.54;100.00;64673.41;5094078;28;20044;-47
2023/05/25 06:45:39;;;;;;;0.20;0.20;;;;;;;-144.54;100.00;64673.41;5095402;27;20044;-47
2023/05/25 06:48:05;;;;;;;0.32;0.22;;;;;;;-144.54;100.00;64673.41;5094556;28;20070;-47
2023/05/25 06:50:31;;;;;;;0.20;0.20;;;;;;;-144.54;100.00;64673.41;5092037;28;20047;-46
2023/05/25 06:52:56;;;;;;;0.20;0.20;;;;;;;-144.54;100.00;64673.41;5077223;28;20048;-48
2023/05/25 06:55:25;;;;;;;0.20;0.20;;;;;;;-144.54;100.00;64673.41;5093820;28;20055;-48
2023/05/25 06:57:51;;;;;;;0.10;0.10;;;;;;;-144.54;100.00;64673.41;5093417;28;20047;-46
2023/05/25 07:00:17;;;;;;;0.20;0.20;;;;;;;-144.54;100.00;64673.41;5087385;28;20388;-48
2023/05/25 07:02:43;;;;;;;0.20;0.20;;;;;;;-144.54;100.00;64673.41;5086701;28;20103;-47
2023/05/25 07:05:08;;;;;;;0.20;0.20;;;;;;;-144.54;100.00;64673.41;5076688;28;20043;-50
2023/05/25 07:07:34;;;;;;;0.20;0.20;;;;;;;-144.54;100.00;64673.41;5089626;28;20572;-47
2023/05/25 07:10:02;;;;;;;0.20;0.20;;;;;;;-144.54;100.00;64673.41;5096515;28;20384;-47
2023/05/25 07:12:28;;;;;;;0.10;0.10;;;;;;;-144.54;100.00;64673.41;5080436;28;20055;-48
2023/05/25 07:14:54;;;;;;;0.20;0.20;;;;;;;-144.54;100.00;64673.41;5097304;28;20058;-49
2023/05/25 07:17:20;;;;;;;0.20;0.20;;;;;;;-144.54;100.00;64673.41;5094137;28;20055;-48
2023/05/25 07:19:47;;;;;;;0.20;0.20;;;;;;;-144.54;100.00;64673.41;5093304;28;20479;-48
2023/05/25 07:22:15;;;;;;;0.20;0.20;;;;;;;-144.54;100.00;64673.41;5095216;27;20088;-47
2023/05/25 07:24:41;;;;;;;0.13;0.13;;;;;;;-144.54;100.00;64673.41;5091388;28;20407;-48
2023/05/25 07:27:07;;;;;;;0.20;0.20;;;;;;;-144.54;100.00;64673.41;5094399;28;20047;-48
2023/05/25 07:29:32;;;;;;;0.20;0.20;;;;;;;-144.54;100.00;64673.41;5090259;28;20047;-48
2023/05/25 07:31:58;;;;;;;0.20;0.20;;;;;;;-144.54;100.00;64673.41;5090107;28;20634;-48
2023/05/25 07:34:24;;;;;;;0.20;0.20;;;;;;;-144.54;100.00;64673.41;5093011;28;20043;-48
2023/05/25 07:36:52;;;;;;;0.20;0.20;;;;;;;-144.54;100.00;64673.41;5089879;28;20271;-47
2023/05/25 07:39:18;;;;;;;0.20;0.20;;;;;;;-144.54;100.00;64673.41;5096738;28;20311;-47
2023/05/25 07:41:43;;;;;;;0.20;0.20;;;;;;;-144.54;100.00;64673.41;5094575;28;20495;-49
2023/05/25 07:44:09;;;;;;;0.20;0.20;;;;;;;-144.54;100.00;64673.41;5091085;27;20070;-47
2023/05/25 07:46:35;;;;;;;0.20;0.20;;;;;;;-144.54;100.00;64673.41;5093304;28;20313;-48
2023/05/25 07:49:02;;;;;;;0.20;0.20;;;;;;;-144.54;100.00;64673.41;5076979;28;20607;-48
2023/05/25 07:51:28;;;;;;;0.20;0.20;;;;;;;-144.54;100.00;64673.41;5091200;28;20502;-48
2023/05/25 07:53:55;;;;;;;0.20;0.20;;;;;;;-144.54;100.00;64673.41;5078689;28;20054;-48
2023/05/25 07:56:21;;;;;;;0.20;0.20;;;;;;;-144.54;100.00;64673.41;5096470;28;20508;-47
2023/05/25 07:58:48;;;;;;;0.20;0.20;;;;;;;-144.54;100.00;64673.41;5090394;28;20071;-47
2023/05/25 08:01:14;;;;;;;0.10;0.10;;;;;;;-144.54;100.00;64673.41;5075397;28;20039;-47
2023/05/25 08:03:41;;;;;;;0.20;0.20;;;;;;;-144.54;100.00;64673.41;5067482;28;20048;-49
2023/05/25 08:06:13;;;;;;;0.20;0.20;;;;;;;-144.54;100.00;64673.41;5074075;28;20035;-47
2023/05/25 08:08:40;;;;;;;0.20;0.20;;;;;;;-144.54;100.00;64673.41;5091548;28;20047;-47
2023/05/25 08:11:06;;;;;;;0.28;0.28;;;;;;;-144.54;100.00;64673.41;5094198;28;20047;-47
2023/05/25 08:13:32;;;;;;;0.30;0.30;;;;;;;-144.54;100.00;64673.41;5064559;28;20039;-47
2023/05/25 08:15:57;;;;;;;0.20;0.20;;;;;;;-144.54;100.00;64673.41;5055521;28;20081;-47
2023/05/25 08:18:23;;;;;;;0.10;0.10;;;;;;;-144.54;100.00;64673.41;5097010;28;20525;-47
2023/05/25 08:20:49;;;;;;;0.20;0.20;;;;;;;-144.54;100.00;64673.41;5088140;28;20055;-48
2023/05/25 08:23:15;;;;;;;0.20;0.20;;;;;;;-144.54;100.00;64673.41;5094858;27;21306;-48
2023/05/25 08:25:40;;;;;;;0.20;0.20;;;;;;;-144.54;100.00;64673.41;5093944;28;20097;-47
2023/05/25 08:28:06;;;;;;;0.20;0.20;;;;;;;-144.54;100.00;64673.41;5087991;28;20054;-51
2023/05/25 08:30:32;;;;;;;0.20;0.20;;;;;;;-144.54;100.00;64673.41;5087386;28;20420;-47
2023/05/25 08:32:58;;;;;;;0.20;0.20;;;;;;;-144.54;100.00;64673.41;5098358;28;20040;-47
2023/05/25 08:35:24;;;;;;;0.20;0.20;;;;;;;-144.54;100.00;64673.41;5084773;28;20511;-47
2023/05/25 08:37:49;;;;;;;0.20;0.20;;;;;;;-144.54;100.00;64673.41;5100230;28;20701;-48
2023/05/25 08:40:15;;;;;;;0.20;0.20;;;;;;;-144.54;100.00;64673.41;5095869;27;20047;-51
2023/05/25 08:42:43;;;;;;;0.20;0.20;;;;;;;-144.54;100.00;64673.41;5095023;27;20089;-47
2023/05/25 08:45:09;;;;;;;0.20;0.20;;;;;;;-144.54;100.00;64673.41;5062725;28;20096;-47
2023/05/25 08:47:43;;;;;;;0.17;0.17;;;;;;;-144.54;100.00;64673.41;5083661;28;20375;-48
2023/05/25 08:50:09;;;;;;;0.20;0.20;;;;;;;-144.54;100.00;64673.41;5082783;28;20048;-48
2023/05/25 08:52:37;;;;;;;0.20;0.20;;;;;;;-144.54;100.00;64673.41;5081516;28;20396;-48
2023/05/25 08:55:05;;;;;;;0.20;0.20;;;;;;;-144.54;100.00;64673.41;5079964;28;20513;-49
2023/05/25 08:57:54;;;;;;;0.20;0.20;;;;;;;-144.54;100.00;64673.41;5088538;28;20075;-47
2023/05/25 09:00:24;;;;;;;0.20;0.20;;;;;;;-144.54;100.00;64673.41;5069280;28;20062;-50
2023/05/25 09:02:57;;;;;;;0.13;0.13;;;;;;;-144.54;100.00;64673.41;5077232;28;20182;-48
2023/05/25 09:05:23;;;;;;;0.10;0.10;;;;;;;-144.54;100.00;64673.41;5088611;28;20050;-48
2023/05/25 09:07:50;;;;;;;0.20;0.20;;;;;;;-144.54;100.00;64673.41;5094883;28;20407;-46
2023/05/25 09:10:16;;;;;;;0.20;0.20;;;;;;;-144.54;100.00;64673.41;5096137;28;20291;-48
2023/05/25 09:12:42;;;;;;;0.20;0.20;;;;;;;-144.54;100.00;64673.41;5098382;28;20130;-49
2023/05/25 09:15:10;;;;;;;0.20;0.20;;;;;;;-144.54;100.00;64673.41;5075996;28;20039;-46
2023/05/25 09:17:35;;;;;;;0.20;0.20;;;;;;;-144.54;100.00;64673.41;5087752;28;20076;-47
2023/05/25 09:20:04;;;;;;;0.10;0.10;;;;;;;-144.54;100.00;64673.41;5077234;28;20108;-47
2023/05/25 09:22:30;;;;;;;0.20;0.20;;;;;;;-144.54;100.00;64673.41;5084357;28;20120;-47
2023/05/25 09:24:56;;;;;;;0.32;0.32;;;;;;;-144.54;100.00;64673.41;5096633;28;20636;-47
2023/05/25 09:27:22;;;;;;;0.20;0.20;;;;;;;-144.54;100.00;64673.41;5102159;28;20043;-48
2023/05/25 09:29:48;;;;;;;0.20;0.20;;;;;;;-144.54;100.00;64673.41;5075700;28;20100;-48
2023/05/25 09:32:15;;;;;;;0.20;0.20;;;;;;;-144.54;100.00;64673.41;5079900;28;20051;-50
2023/05/25 09:34:43;;;;;;;0.20;0.20;;;;;;;-144.54;100.00;64673.41;5070784;28;20097;-48
2023/05/25 09:37:12;;;;;;;0.10;0.10;;;;;;;-144.54;100.00;64673.41;5082660;28;20085;-49
2023/05/25 09:39:40;;;;;;;0.20;0.20;;;;;;;-144.54;100.00;64673.41;5087882;27;20776;-50
2023/05/25 09:42:06;;;;;;;0.13;0.13;;;;;;;-144.54;100.00;64673.41;5101559;28;20405;-48
2023/05/25 09:44:31;;;;;;;0.20;0.20;;;;;;;-144.54;100.00;64673.41;5096883;27;20040;-47
2023/05/25 09:46:57;;;;;;;0.20;0.20;;;;;;;-144.54;100.00;64673.41;5098091;27;20513;-48
2023/05/25 09:49:23;;;;;;;0.10;0.10;;;;;;;-144.54;100.00;64673.41;5096408;28;20321;-50
2023/05/25 09:51:49;;;;;;;0.20;0.20;;;;;;;-144.54;100.00;64673.41;5099739;27;20392;-50
2023/05/25 09:54:15;;;;;;;0.20;0.20;;;;;;;-144.54;100.00;64673.41;5095578;27;20372;-47
2023/05/25 09:56:41;;;;;;;0.20;0.20;;;;;;;-144.54;100.00;64673.41;5085272;28;20487;-51
2023/05/25 09:59:06;;;;;;;0.20;0.20;;;;;;;-144.54;100.00;64673.41;5101002;28;20047;-48
2023/05/25 10:01:34;;;;;;;0.20;0.20;;;;;;;-144.54;100.00;64673.41;5096777;28;20039;-48
2023/05/25 10:04:00;;;;;;;;;;;;;;;-144.54;100.00;64673.41;5101559;27;20043;-49
2023/05/25 10:06:32;;;;;;;0.20;0.20;;;;;;;-144.54;100.00;64673.41;5093351;28;20359;-47
2023/05/25 10:08:57;;;;;;;0.20;0.20;;;;;;;-144.54;100.00;64673.41;5078637;28;20100;-48
2023/05/25 10:11:25;;;;;;;0.20;0.20;;;;;;;-144.54;100.00;64673.41;5094744;28;20062;-49
2023/05/25 10:13:52;;;;;;;0.10;0.10;;;;;;;-144.54;100.00;64673.41;5080365;28;20096;-48
2023/05/25 10:16:23;;;;;;;0.20;0.20;;;;;;;-144.54;100.00;64673.41;5080092;28;20046;-47
2023/05/25 10:18:54;;;;;;;0.20;0.20;;;;;;;-144.54;100.00;64673.41;5072037;28;20794;-49
2023/05/25 10:21:21;;;;;;;0.10;0.10;;;;;;;-144.54;100.00;64673.41;5083818;28;20039;-47
2023/05/25 10:23:50;;;;;;;0.10;0.10;;;;;;;-144.54;100.00;64673.41;5090176;28;20403;-48
2023/05/25 10:26:19;;;;;;;0.10;0.10;;;;;;;-144.54;100.00;64673.41;5076093;28;20308;-48
2023/05/25 10:28:47;;;;;;;0.10;0.10;;;;;;;-144.54;100.00;64673.41;5092566;28;20071;-48
2023/05/25 10:31:13;;;;;;;0.20;0.20;;;;;;;-144.54;100.00;64673.41;5074250;28;20503;-48
2023/05/25 10:33:39;;;;;;;0.20;0.20;;;;;;;-144.54;100.00;64673.41;5098190;28;20551;-49
2023/05/25 10:36:05;;;;;;;0.20;0.20;;;;;;;-144.54;100.00;64673.41;5095847;27;20063;-52
2023/05/25 10:38:38;;;;;;;0.20;0.20;;;;;;;-144.54;100.00;64673.41;5069814;28;20071;-48
2023/05/25 10:41:04;;;;;;;0.20;0.20;;;;;;;-144.54;100.00;64673.41;5060147;28;20131;-48
2023/05/25 10:43:31;;;;;;;0.10;0.10;;;;;;;-144.54;100.00;64673.41;5079796;27;20036;-48
2023/05/25 10:45:56;;;;;;;0.20;0.20;;;;;;;-144.54;100.00;64673.41;5093700;27;20048;-51
2023/05/25 10:48:23;;;;;;;0.10;0.10;;;;;;;-144.54;100.00;64673.41;5097979;28;20042;-47
2023/05/25 10:50:50;;;;;;;0.20;0.20;;;;;;;-144.54;100.00;64673.41;5093109;28;20071;-48
2023/05/25 10:53:19;;;;;;;0.20;0.20;;;;;;;-144.54;100.00;64673.41;5084046;28;20043;-49
2023/05/25 10:56:00;;;;;;;0.20;0.20;;;;;;;-144.54;100.00;64673.41;5075343;28;20038;-50
2023/05/25 10:58:27;;;;;;;0.20;0.20;;;;;;;-144.54;100.00;64673.41;5083831;27;20266;-51
2023/05/25 11:01:06;;;;;;;0.20;0.20;;;;;;;-144.54;100.00;64673.41;5098920;28;20639;-50
2023/05/25 11:03:49;;;;;;;0.20;0.20;;;;;;;-144.54;100.00;64673.41;5080727;28;20069;-48
2023/05/25 11:06:16;;;;;;;0.20;0.20;;;;;;;-144.54;100.00;64673.41;5085652;28;20061;-46
2023/05/25 11:09:03;;;;;;;0.20;0.20;;;;;;;-144.54;100.00;64673.41;5085844;28;20043;-49